Airfield :
LOGIN :

Register | Disclaimer

   EN    FR    IT 

 










Legend :    VFR   Marginal VFR   IFR   Intensive IFR   Very Intensive IFR
Visi :
Ceiling :
>= 8 km
>= 3000ft
5 to 8 km
1000 to 3000 ft
1500m to 5 km
500 to 1000 ft
800 to 1500m
200 to 500 ft
< 800m
< 200 ft
Symbols :   Thunderstorms  Fog  Heavy snow  Heavy precipitations  Wind > 20 kt
SIGMETs :     Misc.  Thunderstorms  Icing  Turbulence  Mountain Waves  Volcanic Ashes







- Airport Elevation : 609 ft
- IATA code : BJZ


LEBZ - Badajoz

CURRENT METAR :
  • 261200Z 23011KT 190V270 9999 BKN035 26/16 Q1013

EXPIRED METARs :
  • 261100Z 22009KT 170V260 9999 SCT030 26/17 Q1013
  • 261000Z 23009KT 190V280 9999 FEW048 25/17 Q1013

TAF TAF LEBZ
Valid from the 26 at 12:00 until the 27 at 12:00 UTC


261100Z 2612/2712 23010KT CAVOK TX32/2615Z TN17/2706Z
PROB40
TEMPO 2619/2622 30006KT
No reported NOTAMs for that airfield.
2 SIGMETs reported for the Madrid FIR (LECM) :
 
Embedded thunderstorms
LECM SIGMET 12 VALID 261149/261400 LEVA
LECM MADRID FIR/UIR EMBD TS OBS AT 1149Z W OF LINE N4140 W00520 - N41 W00520 TOP FL420 STNR NC=
Embedded thunderstorms
LECM SIGMET 11 VALID 261100/261300 LEVA
LECM MADRID FIR/UIR EMBD TS OBS AT 1052Z WI N4150 W00930 - N4140 W00450 - N4320 W00440 - N4330 W010 TOP FL420 STNR NC=



MET'MAP, your aeronautical weather chart ! - Copyright ORBIFLY December 2007 - Disclaimer

ORBIFLY MET'MAP TEAM :

Programming & Development : Alexandra Zaïnal
Concept & Development : Baudouin d'Aumeries
Co-Development & Prog : Marc-Olivier Méhu
Technical & hardware support : Manuel Goepfert

Contact : metmap@orbifly.com




SOURCES & CREDITS :

   NOAA